createdAt,value
2023-04-07T00:01:03.916Z,3.50
2023-04-07T00:03:52.417Z,3.30
2023-04-07T00:06:43.475Z,2.90
2023-04-07T00:09:31.785Z,3.30
2023-04-07T00:12:20.191Z,3.30
2023-04-07T00:15:09.584Z,3.33
2023-04-07T00:17:59.372Z,2.90
2023-04-07T00:20:47.844Z,3.77
2023-04-07T00:23:36.703Z,2.83
2023-04-07T00:26:27.186Z,2.93
2023-04-07T00:29:15.611Z,3.40
2023-04-07T00:32:04.029Z,3.60
2023-04-07T00:34:53.825Z,2.70
2023-04-07T00:37:42.899Z,2.87
2023-04-07T00:40:31.422Z,3.30
2023-04-07T00:43:19.898Z,3.20
2023-04-07T00:46:08.365Z,2.70
2023-04-07T00:48:56.778Z,3.47
2023-04-07T00:51:47.143Z,3.90
2023-04-07T00:54:35.782Z,2.70
2023-04-07T00:57:25.404Z,3.60
2023-04-07T01:00:14.487Z,3.50
2023-04-07T01:03:07.587Z,3.10
2023-04-07T01:06:01.326Z,2.83
2023-04-07T01:08:55.812Z,2.80
2023-04-07T01:11:48.381Z,3.43
2023-04-07T01:14:43.647Z,3.27
2023-04-07T01:18:01.510Z,3.23
2023-04-07T01:20:51.897Z,2.93
2023-04-07T01:23:53.734Z,3.10
2023-04-07T01:26:42.387Z,2.90
2023-04-07T01:29:40.529Z,3.63
2023-04-07T01:32:28.893Z,2.73
2023-04-07T01:35:17.908Z,2.93
2023-04-07T01:38:07.064Z,2.90
2023-04-07T01:40:55.682Z,3.10
2023-04-07T01:43:45.204Z,3.07
2023-04-07T01:46:36.075Z,3.23
2023-04-07T01:49:24.950Z,3.33
2023-04-07T01:52:13.705Z,3.47
2023-04-07T01:55:02.145Z,3.00
2023-04-07T01:57:51.917Z,3.87
2023-04-07T02:00:42.489Z,3.63
2023-04-07T02:03:41.717Z,3.07
2023-04-07T02:06:36.550Z,3.23
2023-04-07T02:09:25.475Z,3.40
2023-04-07T02:12:16.013Z,3.13
2023-04-07T02:15:14.688Z,2.83
2023-04-07T02:18:04.952Z,2.83
2023-04-07T02:20:55.195Z,3.40
2023-04-07T02:23:43.529Z,3.47
2023-04-07T02:26:36.115Z,3.30
2023-04-07T02:29:24.535Z,3.10
2023-04-07T02:32:12.827Z,2.57
2023-04-07T02:35:01.363Z,2.90
2023-04-07T02:37:51.374Z,3.67
2023-04-07T02:40:39.852Z,3.37
2023-04-07T02:43:28.237Z,2.90
2023-04-07T02:46:16.754Z,3.60
2023-04-07T02:49:05.167Z,3.50
2023-04-07T02:51:53.526Z,2.93
2023-04-07T02:54:43.303Z,3.13
2023-04-07T02:57:33.207Z,2.87
2023-04-07T03:00:24.927Z,3.43
2023-04-07T03:03:57.484Z,3.50
2023-04-07T03:06:47.243Z,3.20
2023-04-07T03:09:40.382Z,3.20
2023-04-07T03:12:30.200Z,2.70
2023-04-07T03:15:20.077Z,3.50
2023-04-07T03:18:12.389Z,2.40
2023-04-07T03:21:03.038Z,4.20
2023-04-07T03:23:52.814Z,2.70
2023-04-07T03:26:41.572Z,2.77
2023-04-07T03:29:41.425Z,3.70
2023-04-07T03:32:32.948Z,3.83
2023-04-07T03:35:21.421Z,3.47
2023-04-07T03:38:09.861Z,2.77
2023-04-07T03:40:58.408Z,3.30
2023-04-07T03:43:46.855Z,2.80
2023-04-07T03:46:37.354Z,3.90
2023-04-07T03:49:25.948Z,3.57
2023-04-07T03:52:15.674Z,3.83
2023-04-07T03:55:08.204Z,3.10
2023-04-07T03:57:56.619Z,2.90
2023-04-07T04:00:47.107Z,3.37
2023-04-07T04:03:38.212Z,3.73
2023-04-07T04:06:39.618Z,2.60
2023-04-07T04:09:48.267Z,3.77
2023-04-07T04:12:36.872Z,3.77
2023-04-07T04:15:30.166Z,3.60
2023-04-07T04:18:19.759Z,3.67
2023-04-07T04:21:10.393Z,3.50
2023-04-07T04:24:02.263Z,3.63
2023-04-07T04:26:51.853Z,2.70
2023-04-07T04:29:40.986Z,2.87
2023-04-07T04:32:32.940Z,2.93
2023-04-07T04:35:21.958Z,3.57
2023-04-07T04:38:25.030Z,2.60
2023-04-07T04:41:24.611Z,3.13
2023-04-07T04:44:13.771Z,3.00
2023-04-07T04:47:03.785Z,3.73
2023-04-07T04:49:53.255Z,4.10
2023-04-07T04:52:42.257Z,3.53
2023-04-07T04:55:40.864Z,3.40
2023-04-07T04:58:29.764Z,2.83
2023-04-07T05:01:19.046Z,3.10
2023-04-07T05:04:15.061Z,3.07
2023-04-07T05:07:09.383Z,3.83
2023-04-07T05:09:57.838Z,3.90
2023-04-07T05:12:47.741Z,3.27
2023-04-07T05:15:36.306Z,3.53
2023-04-07T05:18:27.148Z,3.37
2023-04-07T05:21:15.847Z,3.70
2023-04-07T05:24:04.489Z,3.20
2023-04-07T05:26:55.217Z,3.43
2023-04-07T05:29:44.975Z,3.33
2023-04-07T05:32:42.625Z,3.53
2023-04-07T05:35:40.780Z,2.97
2023-04-07T05:38:29.293Z,3.60
2023-04-07T05:41:21.638Z,3.00
2023-04-07T05:44:12.466Z,3.53
2023-04-07T05:47:05.910Z,3.43
2023-04-07T05:49:54.818Z,2.90
2023-04-07T05:52:43.316Z,4.40
2023-04-07T05:55:43.499Z,4.50
2023-04-07T05:58:35.619Z,3.90
2023-04-07T06:01:26.329Z,3.17
2023-04-07T06:04:18.104Z,3.63
2023-04-07T06:07:09.419Z,3.43
2023-04-07T06:09:58.083Z,4.33
2023-04-07T06:12:47.604Z,4.27
2023-04-07T06:15:36.284Z,3.07
2023-04-07T06:18:24.952Z,3.67
2023-04-07T06:21:14.948Z,3.70
2023-04-07T06:24:03.386Z,3.60
2023-04-07T06:26:51.935Z,3.13
2023-04-07T06:29:42.752Z,3.90
2023-04-07T06:32:31.744Z,3.87
2023-04-07T06:35:20.377Z,3.37
2023-04-07T06:38:11.551Z,3.87
2023-04-07T06:40:59.966Z,3.63
2023-04-07T06:43:51.312Z,3.87
2023-04-07T06:46:40.008Z,4.43
2023-04-07T06:49:28.451Z,4.10
2023-04-07T06:52:16.858Z,3.83
2023-04-07T06:55:07.827Z,4.43
2023-04-07T06:57:56.421Z,4.73
2023-04-07T07:00:47.157Z,5.00
2023-04-07T07:03:35.923Z,3.73
2023-04-07T07:06:24.371Z,3.60
2023-04-07T07:09:12.735Z,3.90
2023-04-07T07:12:04.316Z,4.17
2023-04-07T07:14:52.817Z,4.13
2023-04-07T07:17:41.518Z,3.83
2023-04-07T07:20:30.501Z,3.70
2023-04-07T07:23:18.950Z,3.37
2023-04-07T07:26:07.387Z,2.80
2023-04-07T07:28:57.140Z,3.10
2023-04-07T07:31:45.529Z,3.40
2023-04-07T07:34:34.312Z,3.47
2023-04-07T07:37:22.687Z,2.90
2023-04-07T07:40:11.490Z,3.40
2023-04-07T07:42:59.897Z,2.90
2023-04-07T07:45:49.700Z,2.43
2023-04-07T07:48:38.090Z,2.20
2023-04-07T07:51:28.039Z,2.83
2023-04-07T07:54:16.403Z,2.60
2023-04-07T07:57:06.173Z,2.23
2023-04-07T07:59:54.659Z,2.63
2023-04-07T08:02:44.507Z,1.93
2023-04-07T08:05:33.066Z,1.93
2023-04-07T08:08:21.435Z,1.80
2023-04-07T08:11:09.822Z,2.33
2023-04-07T08:13:58.197Z,1.80
2023-04-07T08:16:47.032Z,2.20
2023-04-07T08:19:36.853Z,2.30
2023-04-07T08:22:25.314Z,1.40
2023-04-07T08:25:13.702Z,1.77
2023-04-07T08:28:02.055Z,2.43
2023-04-07T08:30:50.500Z,2.10
2023-04-07T08:33:38.935Z,1.90
2023-04-07T08:36:30.229Z,1.80
2023-04-07T08:39:19.598Z,1.80
2023-04-07T08:42:08.845Z,1.90
2023-04-07T08:45:00.205Z,2.27
2023-04-07T08:47:50.981Z,2.17
2023-04-07T08:50:39.825Z,2.17
2023-04-07T08:53:36.975Z,1.93
2023-04-07T08:56:25.999Z,1.80
2023-04-07T08:59:15.737Z,2.20
2023-04-07T09:02:06.254Z,1.60
2023-04-07T09:04:54.692Z,1.93
2023-04-07T09:07:44.172Z,2.40
2023-04-07T09:10:33.919Z,1.77
2023-04-07T09:13:22.367Z,2.10
2023-04-07T09:16:10.783Z,2.03
2023-04-07T09:18:59.347Z,1.63
2023-04-07T09:21:52.405Z,1.90
2023-04-07T09:24:41.663Z,2.27
2023-04-07T09:27:31.446Z,2.00
2023-04-07T09:30:20.164Z,2.10
2023-04-07T09:33:08.635Z,1.80
2023-04-07T09:35:57.701Z,1.43
2023-04-07T09:38:46.715Z,1.80
2023-04-07T09:41:35.133Z,1.60
2023-04-07T09:44:25.545Z,1.40
2023-04-07T09:47:14.010Z,1.60
2023-04-07T09:50:07.013Z,1.50
2023-04-07T09:52:55.639Z,1.77
2023-04-07T09:55:46.946Z,1.60
2023-04-07T09:58:35.440Z,1.60
2023-04-07T10:01:25.445Z,1.60
2023-04-07T10:04:14.130Z,1.83
2023-04-07T10:07:03.680Z,1.90
2023-04-07T10:09:52.106Z,1.67
2023-04-07T10:12:41.555Z,1.97
2023-04-07T10:15:30.438Z,2.07
2023-04-07T10:18:22.005Z,1.73
2023-04-07T10:21:15.300Z,1.50
2023-04-07T10:24:09.659Z,2.13
2023-04-07T10:27:02.479Z,1.70
2023-04-07T10:29:52.642Z,1.90
2023-04-07T10:32:47.694Z,2.00
2023-04-07T10:36:08.313Z,1.87
2023-04-07T10:39:22.015Z,1.90
2023-04-07T10:42:46.451Z,2.00
2023-04-07T10:45:59.652Z,2.00
2023-04-07T10:49:09.837Z,1.90
2023-04-07T10:52:25.095Z,2.00
2023-04-07T10:55:36.230Z,1.80
2023-04-07T10:58:25.283Z,1.80
2023-04-07T11:01:21.804Z,1.70
2023-04-07T11:04:10.245Z,1.87
2023-04-07T11:06:59.716Z,2.00
2023-04-07T11:09:49.430Z,2.10
2023-04-07T11:12:37.831Z,1.60
2023-04-07T11:15:26.401Z,1.90
2023-04-07T11:18:19.155Z,2.00
2023-04-07T11:21:08.502Z,1.77
2023-04-07T11:23:56.906Z,1.70
2023-04-07T11:26:47.963Z,2.00
2023-04-07T11:29:38.463Z,2.07
2023-04-07T11:32:29.766Z,1.80
2023-04-07T11:35:18.477Z,1.87
2023-04-07T11:38:09.086Z,1.90
2023-04-07T11:40:58.140Z,1.90
2023-04-07T11:43:48.107Z,1.77
2023-04-07T11:46:37.317Z,1.90
2023-04-07T11:49:28.002Z,1.70
2023-04-07T11:52:16.677Z,2.13
2023-04-07T11:55:06.012Z,1.80
2023-04-07T11:57:54.497Z,2.17
2023-04-07T12:00:56.064Z,1.53
2023-04-07T12:03:57.262Z,1.77
2023-04-07T12:06:46.902Z,1.33
2023-04-07T12:09:37.512Z,1.70
2023-04-07T12:12:29.485Z,1.80
2023-04-07T12:15:17.919Z,1.70
2023-04-07T12:18:07.674Z,1.70
2023-04-07T12:20:56.524Z,1.40
2023-04-07T12:23:44.943Z,1.73
2023-04-07T12:26:33.353Z,1.60
2023-04-07T12:29:21.769Z,1.27
2023-04-07T12:32:10.370Z,1.50
2023-04-07T12:35:00.170Z,1.77
2023-04-07T12:37:49.997Z,1.80
2023-04-07T12:40:38.742Z,1.63
2023-04-07T12:43:27.153Z,1.67
2023-04-07T12:46:15.546Z,1.80
2023-04-07T12:49:04.075Z,1.40
2023-04-07T12:51:53.824Z,1.60
2023-04-07T12:54:42.980Z,1.43
2023-04-07T12:57:31.423Z,1.53
2023-04-07T13:00:19.813Z,1.77
2023-04-07T13:03:08.508Z,1.80
2023-04-07T13:06:01.172Z,1.90
2023-04-07T13:08:52.183Z,1.40
2023-04-07T13:11:40.782Z,1.73
2023-04-07T13:14:29.158Z,1.80
2023-04-07T13:17:18.759Z,1.40
2023-04-07T13:20:08.496Z,2.03
2023-04-07T13:23:07.477Z,1.53
2023-04-07T13:25:57.960Z,1.47
2023-04-07T13:28:47.929Z,1.30
2023-04-07T13:31:36.374Z,1.47
2023-04-07T13:34:24.789Z,1.40
2023-04-07T13:37:14.213Z,1.50
2023-04-07T13:40:02.807Z,1.60
2023-04-07T13:42:52.613Z,1.60
2023-04-07T13:45:41.325Z,1.57
2023-04-07T13:48:29.775Z,1.53
2023-04-07T13:51:18.256Z,1.23
2023-04-07T13:54:06.883Z,1.50
2023-04-07T13:56:55.297Z,1.70
2023-04-07T13:59:45.051Z,1.50
2023-04-07T14:02:34.325Z,1.60
2023-04-07T14:05:22.945Z,1.60
2023-04-07T14:08:11.252Z,1.33
2023-04-07T14:10:59.607Z,1.57
2023-04-07T14:13:48.179Z,1.47
2023-04-07T14:16:37.956Z,1.60
2023-04-07T14:19:26.384Z,1.87
2023-04-07T14:22:15.437Z,1.60
2023-04-07T14:25:04.731Z,1.60
2023-04-07T14:27:53.363Z,1.60
2023-04-07T14:30:41.710Z,1.57
2023-04-07T14:33:31.416Z,1.53
2023-04-07T14:36:19.796Z,1.63
2023-04-07T14:39:08.955Z,1.53
2023-04-07T14:41:57.338Z,1.50
2023-04-07T14:44:45.743Z,1.70
2023-04-07T14:47:34.193Z,1.30
2023-04-07T14:50:24.687Z,1.87
2023-04-07T14:53:13.120Z,1.57
2023-04-07T14:56:05.372Z,1.87
2023-04-07T14:58:53.741Z,2.00
2023-04-07T15:01:42.212Z,1.80
2023-04-07T15:04:32.095Z,1.67
2023-04-07T15:07:21.906Z,1.50
2023-04-07T15:10:11.097Z,1.30
2023-04-07T15:12:59.447Z,1.57
2023-04-07T15:15:47.845Z,1.93
2023-04-07T15:18:36.240Z,1.70
2023-04-07T15:21:24.628Z,2.00
2023-04-07T15:24:16.071Z,1.80
2023-04-07T15:27:04.924Z,1.73
2023-04-07T15:29:53.446Z,1.80
2023-04-07T15:32:41.876Z,1.53
2023-04-07T15:35:30.325Z,1.63
2023-04-07T15:38:18.735Z,1.60
2023-04-07T15:41:08.499Z,1.67
2023-04-07T15:43:57.584Z,1.47
2023-04-07T15:46:46.066Z,2.00
2023-04-07T15:49:34.591Z,1.70
2023-04-07T15:52:22.999Z,1.53
2023-04-07T15:55:11.804Z,1.90
2023-04-07T15:58:01.850Z,1.77
2023-04-07T16:00:50.336Z,1.70
2023-04-07T16:03:38.819Z,1.77
2023-04-07T16:06:27.417Z,1.80
2023-04-07T16:09:15.763Z,1.60
2023-04-07T16:12:04.165Z,1.90
2023-04-07T16:14:56.425Z,1.60
2023-04-07T16:17:48.409Z,1.60
2023-04-07T16:20:36.942Z,1.90
2023-04-07T16:23:25.454Z,1.70
2023-04-07T16:26:13.856Z,1.83
2023-04-07T16:29:02.217Z,1.60
2023-04-07T16:31:52.105Z,1.83
2023-04-07T16:34:40.507Z,2.00
2023-04-07T16:37:30.293Z,1.77
2023-04-07T16:40:18.626Z,1.60
2023-04-07T16:43:09.026Z,2.00
2023-04-07T16:46:00.022Z,1.63
2023-04-07T16:48:50.390Z,1.90
2023-04-07T16:51:38.758Z,1.90
2023-04-07T16:54:27.125Z,1.77
2023-04-07T16:57:15.812Z,1.60
2023-04-07T17:00:05.836Z,1.73
2023-04-07T17:02:54.290Z,1.97
2023-04-07T17:05:47.156Z,1.80
2023-04-07T17:08:36.473Z,1.77
2023-04-07T17:11:24.839Z,1.77
2023-04-07T17:14:13.193Z,1.67
2023-04-07T17:17:02.174Z,2.20
2023-04-07T17:19:50.642Z,1.70
2023-04-07T17:22:40.401Z,2.00
2023-04-07T17:25:28.789Z,1.70
2023-04-07T17:28:17.209Z,2.10
2023-04-07T17:31:05.758Z,1.93
2023-04-07T17:33:54.166Z,2.50
2023-04-07T17:36:42.918Z,2.17
2023-04-07T17:39:32.679Z,2.30
2023-04-07T17:42:21.022Z,2.90
2023-04-07T17:45:10.828Z,2.20
2023-04-07T17:48:00.991Z,2.30
2023-04-07T17:50:49.697Z,1.93
2023-04-07T17:53:38.022Z,2.40
2023-04-07T17:56:27.884Z,1.73
2023-04-07T17:59:16.234Z,2.07
2023-04-07T18:02:09.177Z,2.10
2023-04-07T18:05:01.153Z,1.60
2023-04-07T18:07:49.630Z,2.00
2023-04-07T18:10:38.157Z,2.00
2023-04-07T18:13:27.933Z,2.30
2023-04-07T18:16:21.899Z,2.00
2023-04-07T18:19:10.765Z,1.90
2023-04-07T18:22:00.103Z,1.87
2023-04-07T18:24:48.901Z,2.50
2023-04-07T18:27:37.835Z,2.53
2023-04-07T18:30:27.606Z,2.47
2023-04-07T18:33:15.933Z,1.70
2023-04-07T18:36:07.862Z,2.30
2023-04-07T18:38:57.682Z,2.13
2023-04-07T18:41:47.405Z,2.17
2023-04-07T18:44:35.903Z,2.10
2023-04-07T18:47:27.393Z,2.40
2023-04-07T18:50:15.957Z,2.30
2023-04-07T18:53:04.377Z,2.00
2023-04-07T18:55:53.057Z,1.83
2023-04-07T18:58:44.893Z,2.30
2023-04-07T19:01:33.380Z,2.13
2023-04-07T19:04:24.882Z,1.70
2023-04-07T19:07:13.310Z,2.13
2023-04-07T19:10:01.631Z,2.20
2023-04-07T19:12:49.997Z,1.80
2023-04-07T19:15:39.440Z,2.10
2023-04-07T19:18:29.268Z,2.13
2023-04-07T19:21:19.695Z,2.50
2023-04-07T19:24:08.125Z,2.20
2023-04-07T19:26:57.851Z,2.10
2023-04-07T19:29:46.223Z,2.80
2023-04-07T19:32:34.674Z,1.80
2023-04-07T19:35:23.082Z,2.10
2023-04-07T19:38:12.861Z,1.67
2023-04-07T19:41:01.479Z,1.50
2023-04-07T19:43:50.034Z,2.10
2023-04-07T19:46:38.450Z,1.83
2023-04-07T19:49:26.777Z,1.67
2023-04-07T19:52:15.574Z,1.60
2023-04-07T19:55:07.900Z,2.00
2023-04-07T19:57:57.265Z,2.00
2023-04-07T20:00:48.496Z,1.83
2023-04-07T20:03:39.584Z,1.70
2023-04-07T20:06:28.193Z,2.00
2023-04-07T20:09:16.557Z,1.90
2023-04-07T20:12:06.287Z,2.00
2023-04-07T20:14:54.686Z,2.07
2023-04-07T20:17:43.065Z,2.03
2023-04-07T20:20:31.448Z,2.37
2023-04-07T20:23:22.594Z,2.20
2023-04-07T20:26:10.979Z,2.03
2023-04-07T20:29:00.717Z,2.40
2023-04-07T20:31:49.093Z,2.37
2023-04-07T20:34:37.404Z,2.13
2023-04-07T20:37:27.848Z,2.40
2023-04-07T20:40:16.214Z,2.00
2023-04-07T20:43:04.763Z,2.20
2023-04-07T20:45:54.717Z,2.10
2023-04-07T20:48:43.179Z,2.30
2023-04-07T20:51:31.517Z,2.03
2023-04-07T20:54:19.866Z,2.60
2023-04-07T20:57:08.186Z,2.40
2023-04-07T20:59:56.520Z,2.40
2023-04-07T21:02:46.948Z,2.10
2023-04-07T21:05:35.549Z,2.27
2023-04-07T21:08:25.436Z,2.27
2023-04-07T21:11:13.753Z,2.50
2023-04-07T21:14:02.122Z,2.00
2023-04-07T21:16:50.496Z,2.30
2023-04-07T21:19:40.969Z,2.00
2023-04-07T21:22:29.616Z,2.50
2023-04-07T21:25:18.107Z,2.10
2023-04-07T21:28:07.344Z,2.73
2023-04-07T21:30:56.804Z,2.10
2023-04-07T21:33:46.508Z,2.33
2023-04-07T21:36:36.158Z,2.50
2023-04-07T21:39:24.550Z,2.10
2023-04-07T21:42:12.866Z,3.30
2023-04-07T21:45:01.186Z,2.40
2023-04-07T21:47:49.731Z,2.50
2023-04-07T21:50:38.154Z,2.67
2023-04-07T21:53:27.878Z,2.47
2023-04-07T21:56:16.422Z,2.10
2023-04-07T21:59:04.860Z,2.43
2023-04-07T22:01:53.419Z,2.67
2023-04-07T22:04:41.997Z,2.83
2023-04-07T22:07:30.666Z,2.57
2023-04-07T22:10:20.513Z,2.40
2023-04-07T22:13:08.950Z,2.90
2023-04-07T22:15:57.475Z,2.47
2023-04-07T22:18:45.929Z,2.87
2023-04-07T22:21:35.995Z,2.87
2023-04-07T22:24:24.448Z,2.53
2023-04-07T22:27:14.645Z,2.53
2023-04-07T22:30:03.757Z,3.17
2023-04-07T22:32:52.254Z,2.77
2023-04-07T22:35:40.812Z,3.00
2023-04-07T22:38:29.220Z,2.97
2023-04-07T22:41:17.603Z,2.20
2023-04-07T22:44:07.397Z,3.13
2023-04-07T22:46:56.245Z,2.90
2023-04-07T22:49:45.579Z,3.00
2023-04-07T22:52:33.929Z,2.87
2023-04-07T22:55:22.285Z,3.13
2023-04-07T22:58:10.644Z,3.40
2023-04-07T23:01:00.575Z,3.07
2023-04-07T23:03:49.020Z,3.10
2023-04-07T23:06:37.399Z,3.30
2023-04-07T23:09:25.782Z,2.97
2023-04-07T23:12:14.112Z,3.53
2023-04-07T23:15:02.630Z,2.90
2023-04-07T23:17:52.614Z,2.80
2023-04-07T23:20:41.092Z,2.60
2023-04-07T23:23:29.465Z,3.13
2023-04-07T23:26:17.787Z,3.47
2023-04-07T23:29:06.184Z,2.70
2023-04-07T23:31:54.594Z,3.40
2023-04-07T23:34:44.342Z,2.40
2023-04-07T23:37:32.708Z,3.07
2023-04-07T23:40:21.329Z,2.50
2023-04-07T23:43:09.665Z,2.90
2023-04-07T23:45:58.005Z,2.93
2023-04-07T23:48:46.360Z,2.97
2023-04-07T23:51:36.570Z,2.70
2023-04-07T23:54:24.943Z,3.40
2023-04-07T23:57:13.272Z,3.33
